createdAt,value
2022-08-14T00:02:03.074Z,100.00
2022-08-14T00:04:42.427Z,99.95
2022-08-14T00:07:14.236Z,99.29
2022-08-14T00:10:02.064Z,99.09
2022-08-14T00:12:33.792Z,98.74
2022-08-14T00:15:15.334Z,98.38
2022-08-14T00:17:47.549Z,98.27
2022-08-14T00:20:24.056Z,97.87
2022-08-14T00:22:58.451Z,97.36
2022-08-14T00:25:41.679Z,96.83
2022-08-14T00:28:15.590Z,96.96
2022-08-14T00:30:47.077Z,97.09
2022-08-14T00:33:16.245Z,97.00
2022-08-14T00:36:37.265Z,96.95
2022-08-14T00:38:34.774Z,96.34
2022-08-14T00:41:04.750Z,96.32
2022-08-14T00:43:32.551Z,95.85
2022-08-14T00:46:08.117Z,95.91
2022-08-14T00:48:38.197Z,95.41
2022-08-14T00:51:08.923Z,95.30
2022-08-14T00:53:37.293Z,95.25
2022-08-14T00:56:08.535Z,94.73
2022-08-14T00:58:44.889Z,94.71
2022-08-14T01:01:16.903Z,94.54
2022-08-14T01:03:44.938Z,94.29
2022-08-14T01:06:18.534Z,94.27
2022-08-14T01:08:52.197Z,93.84
2022-08-14T01:11:35.404Z,93.75
2022-08-14T01:14:04.929Z,93.15
2022-08-14T01:16:53.036Z,92.24
2022-08-14T01:19:38.738Z,92.29
2022-08-14T01:22:12.276Z,91.86
2022-08-14T01:24:43.499Z,91.58
2022-08-14T01:27:29.805Z,91.45
2022-08-14T01:30:03.201Z,91.47
2022-08-14T01:32:31.218Z,91.74
2022-08-14T01:35:21.073Z,91.58
2022-08-14T01:37:57.086Z,91.16
2022-08-14T01:40:36.401Z,91.08
2022-08-14T01:43:11.401Z,91.31
2022-08-14T01:45:40.737Z,91.31
2022-08-14T01:48:13.510Z,91.77
2022-08-14T01:50:42.270Z,91.70
2022-08-14T01:53:10.458Z,91.73
2022-08-14T01:55:40.384Z,91.78
2022-08-14T01:58:20.377Z,91.26
2022-08-14T02:00:55.776Z,91.56
2022-08-14T02:03:29.664Z,91.74
2022-08-14T02:05:59.580Z,91.30
2022-08-14T02:08:35.007Z,91.32
2022-08-14T02:11:21.620Z,91.42
2022-08-14T02:14:07.467Z,92.28
2022-08-14T02:16:39.425Z,92.20
2022-08-14T02:19:16.053Z,92.56
2022-08-14T02:21:48.760Z,92.78
2022-08-14T02:24:39.263Z,92.65
2022-08-14T02:28:25.300Z,93.40
2022-08-14T02:29:59.135Z,93.36
2022-08-14T02:32:36.150Z,94.02
2022-08-14T02:35:16.571Z,94.60
2022-08-14T02:37:49.420Z,94.24
2022-08-14T02:40:32.507Z,94.24
2022-08-14T02:43:02.645Z,93.91
2022-08-14T02:45:38.766Z,93.61
2022-08-14T02:49:01.097Z,92.82
2022-08-14T02:51:01.319Z,92.45
2022-08-14T02:53:29.929Z,92.14
2022-08-14T02:56:02.675Z,91.61
2022-08-14T02:58:33.492Z,91.38
2022-08-14T03:01:01.271Z,91.09
2022-08-14T03:03:31.886Z,90.66
2022-08-14T03:06:04.516Z,90.52
2022-08-14T03:08:33.291Z,90.00
2022-08-14T03:11:09.460Z,89.66
2022-08-14T03:13:42.471Z,89.49
2022-08-14T03:16:20.086Z,89.31
2022-08-14T03:18:59.908Z,88.88
2022-08-14T03:21:27.060Z,88.69
2022-08-14T03:24:16.469Z,88.19
2022-08-14T03:26:57.315Z,87.65
2022-08-14T03:29:26.243Z,87.10
2022-08-14T03:31:53.961Z,86.43
2022-08-14T03:34:48.310Z,85.98
2022-08-14T03:37:28.818Z,85.77
2022-08-14T03:39:59.724Z,85.16
2022-08-14T03:42:31.075Z,84.43
2022-08-14T03:45:27.853Z,84.44
2022-08-14T03:47:58.522Z,83.49
2022-08-14T03:50:30.712Z,82.80
2022-08-14T03:53:03.434Z,82.18
2022-08-14T03:55:31.064Z,80.94
2022-08-14T03:58:00.461Z,80.53
2022-08-14T04:00:43.820Z,80.00
2022-08-14T04:03:18.218Z,79.47
2022-08-14T04:05:50.793Z,79.05
2022-08-14T04:08:23.114Z,77.55
2022-08-14T04:11:02.059Z,76.48
2022-08-14T04:13:35.426Z,74.98
2022-08-14T04:16:12.599Z,74.22
2022-08-14T04:18:46.634Z,72.38
2022-08-14T04:21:16.249Z,69.05
2022-08-14T04:23:45.324Z,68.36
2022-08-14T04:26:27.364Z,64.89
2022-08-14T04:29:14.197Z,62.76
2022-08-14T04:33:02.346Z,61.55
2022-08-14T04:34:30.026Z,59.44
2022-08-14T04:37:22.127Z,58.50
2022-08-14T04:40:11.945Z,58.14
2022-08-14T04:42:57.278Z,58.00
2022-08-14T04:45:25.241Z,56.28
2022-08-14T04:48:39.292Z,55.51
2022-08-14T04:51:03.713Z,53.85
2022-08-14T04:53:35.692Z,53.24
2022-08-14T04:56:10.727Z,53.16
2022-08-14T04:59:01.612Z,52.17
2022-08-14T05:01:29.119Z,52.00
2022-08-14T05:04:00.918Z,51.36
2022-08-14T05:06:38.184Z,52.12
2022-08-14T05:09:07.062Z,51.90
2022-08-14T05:11:40.783Z,51.98
2022-08-14T05:14:17.063Z,52.47
2022-08-14T05:16:56.261Z,53.13
2022-08-14T05:19:29.149Z,54.16
2022-08-14T05:22:16.047Z,54.52
2022-08-14T05:24:52.033Z,55.17
2022-08-14T05:27:23.042Z,55.56
2022-08-14T05:29:57.037Z,55.87
2022-08-14T05:32:27.299Z,56.52
2022-08-14T05:34:59.776Z,55.83
2022-08-14T05:37:29.569Z,55.70
2022-08-14T05:39:58.330Z,54.59
2022-08-14T05:42:27.111Z,55.66
2022-08-14T05:44:56.427Z,55.06
2022-08-14T05:47:24.262Z,53.77
2022-08-14T05:49:58.278Z,54.59
2022-08-14T05:52:38.351Z,54.79
2022-08-14T05:55:08.456Z,55.33
2022-08-14T05:57:45.789Z,54.69
2022-08-14T06:00:13.781Z,54.68
2022-08-14T06:02:56.309Z,53.87
2022-08-14T06:05:24.309Z,52.55
2022-08-14T06:07:57.572Z,52.00
2022-08-14T06:10:24.681Z,51.48
2022-08-14T06:12:55.671Z,50.13
2022-08-14T06:15:29.427Z,49.66
2022-08-14T06:17:59.057Z,48.47
2022-08-14T06:20:26.331Z,49.14
2022-08-14T06:22:53.357Z,50.03
2022-08-14T06:25:20.469Z,49.37
2022-08-14T06:27:49.224Z,47.01
2022-08-14T06:30:19.766Z,47.77
2022-08-14T06:32:47.924Z,46.35
2022-08-14T06:35:26.378Z,45.67
2022-08-14T06:37:59.609Z,46.24
2022-08-14T06:40:36.742Z,46.34
2022-08-14T06:43:12.332Z,45.76
2022-08-14T06:45:50.110Z,45.66
2022-08-14T06:48:25.284Z,44.64
2022-08-14T06:50:55.296Z,43.94
2022-08-14T06:53:27.644Z,44.71
2022-08-14T06:56:00.663Z,42.77
2022-08-14T06:58:31.671Z,39.84
2022-08-14T07:01:24.884Z,40.17
2022-08-14T07:04:23.630Z,39.34
2022-08-14T07:06:54.810Z,39.16
2022-08-14T07:09:23.418Z,38.91
2022-08-14T07:11:51.997Z,37.21
2022-08-14T07:14:18.951Z,35.58
2022-08-14T07:16:45.755Z,33.55
2022-08-14T07:19:12.614Z,33.45
2022-08-14T07:21:39.746Z,32.77
2022-08-14T07:24:09.790Z,33.87
2022-08-14T07:26:53.695Z,35.18
2022-08-14T07:29:26.065Z,34.90
2022-08-14T07:31:53.701Z,35.85
2022-08-14T07:34:26.484Z,36.52
2022-08-14T07:37:07.367Z,36.65
2022-08-14T07:39:36.781Z,36.98
2022-08-14T07:42:06.259Z,37.74
2022-08-14T07:44:45.857Z,38.47
2022-08-14T07:47:15.905Z,39.71
2022-08-14T07:50:02.035Z,38.07
2022-08-14T07:52:30.586Z,36.17
2022-08-14T07:54:57.927Z,36.04
2022-08-14T07:57:25.208Z,35.43
2022-08-14T07:59:52.338Z,35.89
2022-08-14T08:02:20.637Z,36.24
2022-08-14T08:04:59.272Z,36.33
2022-08-14T08:07:29.432Z,36.98
2022-08-14T08:09:59.646Z,37.51
2022-08-14T08:12:31.187Z,38.12
2022-08-14T08:15:05.860Z,39.17
2022-08-14T08:17:42.665Z,37.64
2022-08-14T08:20:16.779Z,38.32
2022-08-14T08:22:49.940Z,38.89
2022-08-14T08:25:24.520Z,39.16
2022-08-14T08:28:21.872Z,39.52
2022-08-14T08:31:03.061Z,39.16
2022-08-14T08:33:37.465Z,39.38
2022-08-14T08:36:12.769Z,38.41
2022-08-14T08:39:18.018Z,37.43
2022-08-14T08:41:50.559Z,36.79
2022-08-14T08:44:31.875Z,34.26
2022-08-14T08:47:07.995Z,33.41
2022-08-14T08:49:52.716Z,32.51
2022-08-14T08:52:31.644Z,32.70
2022-08-14T08:55:01.265Z,32.92
2022-08-14T08:57:37.542Z,32.85
2022-08-14T09:00:26.450Z,32.87
2022-08-14T09:03:03.398Z,33.50
2022-08-14T09:05:33.066Z,33.71
2022-08-14T09:08:30.700Z,34.61
2022-08-14T09:11:02.638Z,34.68
2022-08-14T09:13:48.799Z,36.08
2022-08-14T09:16:21.176Z,36.50
2022-08-14T09:18:48.774Z,34.24
2022-08-14T09:21:16.172Z,33.02
2022-08-14T09:24:27.482Z,34.18
2022-08-14T09:26:30.396Z,33.62
2022-08-14T09:29:00.647Z,34.39
2022-08-14T09:31:43.148Z,34.25
2022-08-14T09:34:33.055Z,32.16
2022-08-14T09:37:21.226Z,32.48
2022-08-14T09:40:07.611Z,31.70
2022-08-14T09:42:55.568Z,32.27
2022-08-14T09:45:40.241Z,32.42
2022-08-14T09:48:27.989Z,32.59
2022-08-14T09:54:18.470Z,34.67
2022-08-14T09:56:31.118Z,33.92
2022-08-14T09:59:10.739Z,32.08
2022-08-14T10:01:37.657Z,31.04
2022-08-14T10:04:36.492Z,30.71
2022-08-14T10:07:05.859Z,28.93
2022-08-14T10:09:34.694Z,28.32
2022-08-14T10:12:04.755Z,27.62
2022-08-14T10:14:35.729Z,26.79
2022-08-14T10:17:06.991Z,25.73
2022-08-14T10:19:36.482Z,26.21
2022-08-14T10:23:14.763Z,25.25
2022-08-14T10:24:59.787Z,24.43
2022-08-14T10:27:28.260Z,25.25
2022-08-14T10:30:01.433Z,25.48
2022-08-14T10:32:39.989Z,25.60
2022-08-14T10:35:13.642Z,25.28
2022-08-14T10:37:46.661Z,25.53
2022-08-14T10:40:44.376Z,25.29
2022-08-14T10:43:02.926Z,25.07
2022-08-14T10:45:35.875Z,26.58
2022-08-14T10:48:23.672Z,26.21
2022-08-14T10:51:02.556Z,25.35
2022-08-14T10:53:35.045Z,24.97
2022-08-14T10:56:06.905Z,24.60
2022-08-14T10:58:49.078Z,25.04
2022-08-14T11:01:15.975Z,26.76
2022-08-14T11:03:56.925Z,27.87
2022-08-14T11:06:24.944Z,28.78
2022-08-14T11:08:55.238Z,29.44
2022-08-14T11:11:25.272Z,30.09
2022-08-14T11:13:59.987Z,30.50
2022-08-14T11:16:28.723Z,32.06
2022-08-14T11:18:59.588Z,32.53
2022-08-14T11:21:30.117Z,31.22
2022-08-14T11:23:59.055Z,31.17
2022-08-14T11:26:30.146Z,29.51
2022-08-14T11:29:00.277Z,28.36
2022-08-14T11:31:35.585Z,27.81
2022-08-14T11:34:10.456Z,25.84
2022-08-14T11:37:09.472Z,25.76
2022-08-14T11:39:40.794Z,24.88
2022-08-14T11:42:56.733Z,24.17
2022-08-14T11:45:11.506Z,23.21
2022-08-14T11:48:13.176Z,22.56
2022-08-14T11:50:37.206Z,22.41
2022-08-14T11:53:08.010Z,21.74
2022-08-14T11:55:39.882Z,21.97
2022-08-14T11:58:10.982Z,22.44
2022-08-14T12:00:53.840Z,21.71
2022-08-14T12:03:37.818Z,21.93
2022-08-14T12:06:29.185Z,21.51
2022-08-14T12:09:08.526Z,21.88
2022-08-14T12:11:47.035Z,21.58
2022-08-14T12:14:34.856Z,21.46
2022-08-14T12:17:12.695Z,21.86
2022-08-14T12:20:04.424Z,21.17
2022-08-14T12:22:37.120Z,21.36
2022-08-14T12:25:11.239Z,21.19
2022-08-14T12:27:51.912Z,21.28
2022-08-14T12:30:26.884Z,20.67
2022-08-14T12:33:02.229Z,20.59
2022-08-14T12:35:43.810Z,20.45
2022-08-14T12:38:14.832Z,21.26
2022-08-14T12:40:51.836Z,21.89
2022-08-14T12:43:21.480Z,21.79
2022-08-14T12:45:55.201Z,21.52
2022-08-14T12:48:32.052Z,21.60
2022-08-14T12:50:59.451Z,22.07
2022-08-14T12:53:38.118Z,22.43
2022-08-14T12:56:22.512Z,22.99
2022-08-14T12:58:57.980Z,23.35
2022-08-14T13:02:03.197Z,24.23
2022-08-14T13:04:21.656Z,24.35
2022-08-14T13:06:51.460Z,24.57
2022-08-14T13:09:20.371Z,24.95
2022-08-14T13:11:58.915Z,25.81
2022-08-14T13:14:38.786Z,25.89
2022-08-14T13:17:07.202Z,26.62
2022-08-14T13:19:35.936Z,26.66
2022-08-14T13:22:09.630Z,26.82
2022-08-14T13:24:39.919Z,26.51
2022-08-14T13:27:06.864Z,26.44
2022-08-14T13:29:46.727Z,26.08
2022-08-14T13:32:15.322Z,26.36
2022-08-14T13:34:46.081Z,27.07
2022-08-14T14:27:41.020Z,37.16
2022-08-14T14:30:18.742Z,37.74
2022-08-14T14:33:02.285Z,38.37
2022-08-14T14:35:38.381Z,38.54
2022-08-14T14:38:08.751Z,39.02
2022-08-14T14:40:53.538Z,40.34
2022-08-14T14:43:25.098Z,40.39
2022-08-14T14:45:55.081Z,40.20
2022-08-14T14:48:28.195Z,40.51
2022-08-14T14:50:58.510Z,40.82
2022-08-14T14:53:27.370Z,41.39
2022-08-14T14:56:50.489Z,41.51
2022-08-14T14:58:46.302Z,40.88
2022-08-14T15:01:17.551Z,41.14
2022-08-14T15:03:46.220Z,41.19
2022-08-14T15:06:13.192Z,41.58
2022-08-14T15:08:56.269Z,41.65
2022-08-14T15:11:26.295Z,41.82
2022-08-14T15:13:57.415Z,42.28
2022-08-14T15:16:24.891Z,43.23
2022-08-14T15:18:52.945Z,43.22
2022-08-14T15:21:19.904Z,44.32
2022-08-14T15:23:50.636Z,44.69
2022-08-14T15:26:24.331Z,44.61
2022-08-14T15:29:06.503Z,45.84
2022-08-14T15:31:37.096Z,46.70
2022-08-14T15:34:43.445Z,47.29
2022-08-14T15:37:10.985Z,48.62
2022-08-14T15:39:41.462Z,49.03
2022-08-14T15:42:16.237Z,49.15
2022-08-14T15:44:57.075Z,50.46
2022-08-14T15:47:30.019Z,50.94
2022-08-14T15:50:03.809Z,51.17
2022-08-14T15:52:35.441Z,51.75
2022-08-14T15:55:07.757Z,51.92
2022-08-14T15:57:35.715Z,52.82
2022-08-14T16:00:43.400Z,52.79
2022-08-14T16:03:12.638Z,53.56
2022-08-14T16:05:42.204Z,53.87
2022-08-14T16:08:27.249Z,54.79
2022-08-14T16:10:59.218Z,54.20
2022-08-14T16:13:41.292Z,54.63
2022-08-14T16:16:34.603Z,54.74
2022-08-14T16:19:09.979Z,54.63
2022-08-14T16:21:40.161Z,54.90
2022-08-14T16:24:27.815Z,55.07
2022-08-14T16:27:00.975Z,55.58
2022-08-14T16:29:30.832Z,55.60
2022-08-14T16:32:01.954Z,55.56
2022-08-14T16:34:51.123Z,56.01
2022-08-14T16:37:22.610Z,56.54
2022-08-14T16:39:50.436Z,56.81
2022-08-14T16:43:02.843Z,56.65
2022-08-14T16:45:12.076Z,56.78
2022-08-14T16:47:40.248Z,57.12
2022-08-14T16:50:11.386Z,57.15
2022-08-14T16:52:45.101Z,57.87
2022-08-14T16:55:22.457Z,58.01
2022-08-14T16:57:58.595Z,58.48
2022-08-14T17:00:43.727Z,59.01
2022-08-14T17:03:13.189Z,59.62
2022-08-14T17:05:43.497Z,59.88
2022-08-14T17:08:32.053Z,60.18
2022-08-14T17:11:09.737Z,61.02
2022-08-14T17:13:59.667Z,61.48
2022-08-14T17:16:25.907Z,61.95
2022-08-14T17:19:00.238Z,62.90
2022-08-14T17:21:38.414Z,63.33
2022-08-14T17:24:57.381Z,64.02
2022-08-14T17:27:00.089Z,64.64
2022-08-14T17:29:33.191Z,65.01
2022-08-14T17:32:28.356Z,65.50
2022-08-14T17:35:02.157Z,66.18
2022-08-14T17:37:29.112Z,67.17
2022-08-14T17:40:15.273Z,67.34
2022-08-14T17:42:50.994Z,67.63
2022-08-14T17:45:28.645Z,68.83
2022-08-14T17:48:10.086Z,69.02
2022-08-14T17:51:01.008Z,71.00
2022-08-14T17:53:30.306Z,71.89
2022-08-14T17:56:01.659Z,71.72
2022-08-14T17:58:38.455Z,72.21
2022-08-14T18:01:13.353Z,72.33
2022-08-14T18:03:51.161Z,73.35
2022-08-14T18:06:39.988Z,73.46
2022-08-14T18:09:25.376Z,74.04
2022-08-14T18:11:55.287Z,74.65
2022-08-14T18:14:33.135Z,74.40
2022-08-14T18:17:11.256Z,75.18
2022-08-14T18:19:41.525Z,75.08
2022-08-14T18:22:31.413Z,75.99
2022-08-14T18:24:58.471Z,76.72
2022-08-14T18:27:42.094Z,76.81
2022-08-14T18:30:32.027Z,76.64
2022-08-14T18:32:59.280Z,77.68
2022-08-14T18:35:58.498Z,78.19
2022-08-14T18:38:43.038Z,78.34
2022-08-14T18:41:36.107Z,79.59
2022-08-14T18:44:10.036Z,79.75
2022-08-14T18:47:14.933Z,80.46
2022-08-14T18:49:57.898Z,80.21
2022-08-14T18:52:37.144Z,80.82
2022-08-14T18:55:21.234Z,81.88
2022-08-14T18:57:58.323Z,81.57
2022-08-14T19:00:32.787Z,82.00
2022-08-14T19:03:01.874Z,81.96
2022-08-14T19:05:47.878Z,82.69
2022-08-14T19:08:27.247Z,82.64
2022-08-14T19:11:04.225Z,82.88
2022-08-14T19:13:48.142Z,83.43
2022-08-14T19:16:26.132Z,83.60
2022-08-14T19:18:53.452Z,83.80
2022-08-14T19:21:27.005Z,84.45
2022-08-14T19:24:29.556Z,84.68
2022-08-14T19:27:24.420Z,85.67
2022-08-14T19:30:19.342Z,86.01
2022-08-14T19:32:52.204Z,85.61
2022-08-14T19:35:24.400Z,86.25
2022-08-14T19:37:55.280Z,85.80
2022-08-14T19:40:42.862Z,86.48
2022-08-14T19:43:10.615Z,86.55
2022-08-14T19:45:38.943Z,85.85
2022-08-14T19:48:14.123Z,86.67
2022-08-14T19:50:44.911Z,87.51
2022-08-14T19:53:17.459Z,87.33
2022-08-14T19:55:58.587Z,88.20
2022-08-14T19:58:55.010Z,88.63
2022-08-14T20:01:36.986Z,88.50
2022-08-14T20:04:22.926Z,89.44
2022-08-14T20:06:57.693Z,89.12
2022-08-14T20:11:06.555Z,89.30
2022-08-14T20:12:28.817Z,90.06
2022-08-14T20:15:15.488Z,89.92
2022-08-14T20:17:54.367Z,89.87
2022-08-14T20:20:31.551Z,89.55
2022-08-14T20:23:11.582Z,90.54
2022-08-14T20:25:45.669Z,89.94
2022-08-14T20:28:32.009Z,90.38
2022-08-14T20:31:18.652Z,90.64
2022-08-14T20:34:19.362Z,90.46
2022-08-14T20:37:26.337Z,90.82
2022-08-14T20:39:55.829Z,90.91
2022-08-14T20:42:43.701Z,92.30
2022-08-14T20:45:17.991Z,92.40
2022-08-14T20:47:54.770Z,93.23
2022-08-14T20:50:29.101Z,92.57
2022-08-14T20:53:00.841Z,92.23
2022-08-14T20:55:45.465Z,93.11
2022-08-14T20:58:43.203Z,93.88
2022-08-14T21:01:32.670Z,93.61
2022-08-14T21:04:05.137Z,94.33
2022-08-14T21:07:22.951Z,94.35
2022-08-14T21:10:04.597Z,95.19
2022-08-14T21:12:34.221Z,95.46
2022-08-14T21:15:10.380Z,96.09
2022-08-14T21:17:38.556Z,96.01
2022-08-14T21:20:25.478Z,96.12
2022-08-14T21:22:56.526Z,96.17
2022-08-14T21:25:23.828Z,96.72
2022-08-14T21:27:56.834Z,96.16
2022-08-14T21:30:51.537Z,96.45
2022-08-14T21:33:12.452Z,96.26
2022-08-14T21:35:46.913Z,96.22
2022-08-14T21:38:18.273Z,95.90
2022-08-14T21:40:50.577Z,96.52
2022-08-14T21:43:21.750Z,96.57
2022-08-14T21:45:57.568Z,96.92
2022-08-14T21:48:29.911Z,97.24
2022-08-14T21:51:52.378Z,96.88
2022-08-14T21:53:58.358Z,96.93
2022-08-14T21:56:37.155Z,96.24
2022-08-14T21:59:17.725Z,96.67
2022-08-14T22:02:01.860Z,96.55
2022-08-14T22:04:40.633Z,96.73
2022-08-14T22:07:13.181Z,96.64
2022-08-14T22:09:44.893Z,96.90
2022-08-14T22:12:58.736Z,96.68
2022-08-14T22:15:11.611Z,97.05
2022-08-14T22:17:44.158Z,97.10
2022-08-14T22:20:12.430Z,97.23
2022-08-14T22:22:44.770Z,97.38
2022-08-14T22:25:17.297Z,98.10
2022-08-14T22:27:56.241Z,97.86
2022-08-14T22:30:25.225Z,97.65
2022-08-14T22:32:57.849Z,97.77
2022-08-14T22:35:26.747Z,97.57
2022-08-14T22:38:34.647Z,97.53
2022-08-14T22:40:59.938Z,98.10
2022-08-14T22:43:31.336Z,97.97
2022-08-14T22:46:02.488Z,98.56
2022-08-14T22:48:29.975Z,99.15
2022-08-14T22:50:57.053Z,99.15
2022-08-14T22:53:29.520Z,99.13
2022-08-14T22:55:57.072Z,99.11
2022-08-14T22:58:30.406Z,99.51
2022-08-14T23:01:01.374Z,99.25
2022-08-14T23:03:34.181Z,99.22
2022-08-14T23:06:02.306Z,99.49
2022-08-14T23:08:56.911Z,99.76
2022-08-14T23:11:16.465Z,99.70
2022-08-14T23:13:46.257Z,100.00
2022-08-14T23:16:19.808Z,100.00
2022-08-14T23:18:53.779Z,100.00
2022-08-14T23:21:24.482Z,100.00
2022-08-14T23:23:55.322Z,100.00
2022-08-14T23:26:48.104Z,100.00
2022-08-14T23:29:12.513Z,100.00
2022-08-14T23:31:39.585Z,100.00
2022-08-14T23:34:10.783Z,100.00
2022-08-14T23:36:53.606Z,100.00
2022-08-14T23:39:30.215Z,100.00
2022-08-14T23:42:02.125Z,100.00
2022-08-14T23:44:32.237Z,100.00
2022-08-14T23:47:11.867Z,100.00
2022-08-14T23:50:00.990Z,100.00
2022-08-14T23:53:06.844Z,100.00
2022-08-14T23:55:28.330Z,100.00
2022-08-14T23:57:57.779Z,100.00
